Latest Weather Observations for Kingfish B

IDV60801

Issued at 12:05 am EST Wednesday 24 September 2014 (issued every 30 minutes, with the page automatically refreshed every 10 minutes)

About weather observations | Map of weather stations | Latest weather observations for VIC | Other Formats
Station Details ID: 400139 Name: KINGFISH B (PLATFORM) Lat: -38.60 Lon: 148.19 Height: 31.4 m
Data from the previous 72 hours. | See also: Recent months for locations in Victoria
Date/Time
EST
Temp
°C
App
Temp
°C
Dew
Point
Rel
Hum
%
Delta-T
°C
Wind Press
QNH
hPa
Press
MSL
hPa
Rain
since 9 am
mm
Dir
 
Spd
km/h
Gust
km/h
Spd
kts
Gust
kts
23/10:50pm 15.7 14.8 13.7 88 1.1 ENE 11 13 6 7 1021.0 - -
23/10:40pm 15.7 14.8 13.7 88 1.1 ENE 11 11 6 6 1021.2 - -
23/10:30pm 15.7 14.3 13.5 87 1.2 NE 13 17 7 9 1021.4 - -
23/10:20pm 15.7 13.6 13.5 87 1.2 NE 17 19 9 10 1021.5 - -
23/10:10pm 15.7 13.5 13.3 86 1.3 NE 17 19 9 10 1021.5 - -
23/10:00pm 15.7 13.1 13.1 84 1.4 NE 19 20 10 11 1021.6 - -
23/09:50pm 15.7 13.0 13.0 84 1.5 NE 19 20 10 11 1021.7 - -
23/09:40pm 15.7 13.0 12.9 83 1.6 NE 19 20 10 11 1021.8 - -
23/09:30pm 15.7 13.0 12.8 83 1.6 NE 19 20 10 11 1022.0 - -
23/09:20pm 15.7 13.3 12.7 82 1.7 NE 17 19 9 10 1022.1 - -
23/09:10pm 15.7 13.3 12.7 82 1.7 NE 17 20 9 11 1022.3 - -
23/09:00pm 15.7 13.3 12.6 82 1.7 NE 17 19 9 10 1022.4 - -
23/08:50pm 15.6 12.8 12.6 82 1.7 NE 19 20 10 11 1022.4 - -
23/08:40pm 15.6 12.8 12.6 82 1.7 NE 19 19 10 10 1022.4 - -
23/08:30pm 15.5 13.1 12.7 83 1.5 NE 17 20 9 11 1022.6 - -
23/08:20pm 15.6 13.6 12.7 83 1.6 NE 15 17 8 9 1022.8 - -
23/08:10pm 15.6 13.5 12.5 82 1.7 NE 15 17 8 9 1022.8 - -
23/08:00pm 15.7 14.0 12.4 81 1.8 NE 13 15 7 8 1022.9 - -
23/07:50pm 15.7 14.0 12.3 80 1.9 NE 13 15 7 8 1023.0 - -
23/07:40pm 15.6 14.2 12.3 81 1.8 NNE 11 13 6 7 1023.3 - -
23/07:30pm 15.6 14.3 12.4 81 1.8 NNE 11 13 6 7 1023.4 - -
23/07:20pm 15.7 14.4 12.6 82 1.7 NNE 11 13 6 7 1023.4 - -
23/07:10pm 15.7 14.0 12.6 82 1.7 NE 13 15 7 8 1023.4 - -
23/07:00pm 15.8 13.7 12.5 81 1.8 NE 15 17 8 9 1023.4 - -
23/06:50pm 15.8 13.7 12.3 80 1.9 NE 15 17 8 9 1023.4 - -
23/06:40pm 15.8 13.7 12.3 80 1.9 NE 15 17 8 9 1023.5 - -
23/06:30pm 15.8 13.7 12.4 80 1.9 NE 15 17 8 9 1023.4 - -
23/06:20pm 15.7 13.6 12.5 81 1.8 NE 15 17 8 9 1023.4 - -
23/06:10pm 15.7 13.7 12.6 82 1.7 NE 15 17 8 9 1023.4 - -
23/06:00pm 15.8 13.8 12.7 82 1.7 NE 15 17 8 9 1023.4 - -
23/05:50pm 15.7 13.7 12.7 82 1.7 NE 15 17 8 9 1023.4 - -
23/05:40pm 15.7 13.7 12.6 82 1.7 NE 15 17 8 9 1023.4 - -
23/05:20pm 15.8 13.7 12.5 81 1.8 NE 15 17 8 9 1023.3 - -
23/05:10pm 15.9 14.2 12.4 80 1.9 NE 13 15 7 8 1023.4 - -
23/05:00pm 16.0 14.3 12.4 79 2.0 NE 13 13 7 7 1023.4 - -
23/04:50pm 16.1 14.3 12.2 77 2.1 NE 13 13 7 7 1023.4 - -
23/04:40pm 16.1 14.3 12.2 77 2.1 NE 13 13 7 7 1023.5 - -
23/04:30pm 16.0 14.6 12.1 77 2.1 NE 11 13 6 7 1023.6 - -
23/04:20pm 16.1 14.6 12.0 76 2.2 NE 11 11 6 6 1023.6 - -
23/04:10pm 16.1 14.6 11.8 75 2.3 NE 11 11 6 6 1023.5 - -
23/04:00pm 16.1 14.8 11.4 73 2.5 NE 9 11 5 6 1023.5 - -
23/03:50pm 16.0 14.6 10.9 72 2.7 NE 9 9 5 5 1023.6 - -
23/03:40pm 15.9 14.9 10.9 72 2.7 NE 7 9 4 5 1023.6 - -
23/03:30pm 15.9 14.8 10.8 71 2.7 NE 7 7 4 4 1023.7 - -
23/03:20pm 15.9 15.1 10.9 72 2.7 NE 6 7 3 4 1023.7 - -
23/03:10pm 16.0 15.5 10.9 72 2.7 NE 4 6 2 3 1023.8 - -
23/03:00pm 16.0 15.5 10.7 71 2.8 NE 4 4 2 2 1023.9 - -
23/02:40pm 15.8 15.7 10.7 71 2.7 NE 2 4 1 2 1024.0 - -
23/02:30pm 15.9 15.7 10.6 71 2.8 NE 2 2 1 1 1024.0 - -
23/02:20pm 15.9 15.7 10.4 70 2.9 NE 2 4 1 2 1024.0 - -
23/02:10pm 15.9 15.6 10.2 69 3.0 NE 2 2 1 1 1024.0 - -
23/02:00pm 15.8 15.5 10.1 69 3.0 NE 2 2 1 1 1024.1 - -
23/01:50pm 15.9 15.7 10.4 70 2.9 NE 2 2 1 1 1024.2 - -
23/01:40pm 15.9 15.7 10.5 70 2.9 NNE 2 4 1 2 1024.3 - -
23/01:30pm 15.9 15.4 10.7 71 2.8 NNE 4 4 2 2 1024.4 - -
23/01:20pm 15.8 15.3 10.7 71 2.7 NNE 4 4 2 2 1024.4 - -
23/01:10pm 15.8 15.3 10.7 71 2.7 NNE 4 4 2 2 1024.6 - -
23/01:00pm 15.7 15.2 10.6 71 2.7 NNE 4 6 2 3 1024.7 - -
23/12:50pm 15.6 15.0 10.5 71 2.7 NNE 4 6 2 3 1024.8 - -
23/12:40pm 15.6 15.0 10.4 71 2.7 NNE 4 6 2 3 1024.8 - -
23/12:30pm 15.6 15.0 10.3 70 2.8 NNE 4 6 2 3 1024.8 - -
23/12:20pm 15.6 15.0 10.3 70 2.8 NNE 4 6 2 3 1025.0 - -
23/12:10pm 15.7 14.7 10.2 70 2.9 NNE 6 6 3 3 1025.1 - -
23/12:00pm 15.7 14.6 10.1 69 2.9 NNE 6 6 3 3 1025.3 - -
23/11:50am 15.8 14.7 10.1 69 3.0 NNE 6 6 3 3 1025.4 - -
23/11:40am 15.9 15.2 10.1 68 3.0 NNE 4 7 2 4 1025.6 - -
23/11:30am 15.9 15.2 10.1 68 3.0 NNE 4 6 2 3 1025.7 - -
23/11:20am 15.8 15.1 10.2 69 2.9 NNE 4 7 2 4 1025.9 - -
23/11:10am 15.8 15.2 10.4 70 2.9 NNE 4 7 2 4 1026.0 - -
23/11:00am 15.6 15.4 10.4 71 2.7 N 2 6 1 3 1026.1 - -
23/10:50am 15.7 15.5 10.4 71 2.8 NNW 2 7 1 4 1026.3 - -
23/10:40am 15.9 15.7 10.4 70 2.9 NNW 2 7 1 4 1026.5 - -
23/10:30am 15.8 15.1 10.2 69 2.9 NNW 4 6 2 3 1026.6 - -
23/10:20am 16.2 16.4 10.4 68 3.1 N 0 6 0 3 1026.6 - -
23/10:10am 16.2 16.4 10.6 69 3.0 NNE 0 2 0 1 1026.6 - -
23/10:00am 16.1 15.9 10.4 69 3.0 NNE 2 6 1 3 1026.8 - -
23/09:50am 16.3 16.1 10.4 68 3.1 NNE 2 4 1 2 1027.0 - -
23/09:40am 16.4 16.2 10.6 68 3.1 NNW 2 4 1 2 1027.2 - -
23/09:30am 16.2 16.0 10.5 69 3.0 NW 2 4 1 2 1027.3 - -
23/09:20am 16.3 15.8 10.6 69 3.0 NW 4 6 2 3 1027.4 - -
23/09:10am 16.2 15.3 10.5 69 3.0 NW 6 6 3 3 1027.5 - -
23/09:00am 16.2 15.2 10.4 68 3.1 NW 6 6 3 3 1027.6 - -
23/08:50am 16.4 15.5 10.5 68 3.1 NW 6 7 3 4 1027.5 - -
23/08:40am 16.6 15.7 10.5 67 3.2 NW 6 7 3 4 1027.6 - -
23/08:30am 16.7 15.8 10.8 68 3.2 NW 6 7 3 4 1027.7 - -
23/08:20am 16.8 16.0 11.1 69 3.1 NNW 6 7 3 4 1027.7 - -
23/08:10am 16.7 16.0 11.5 71 2.8 NNW 6 7 3 4 1027.7 - -
23/08:00am 16.3 15.6 11.4 73 2.6 NW 6 7 3 4 1027.9 - -
23/07:50am 16.2 15.5 11.4 73 2.6 NW 6 9 3 5 1028.0 - -
23/07:40am 16.5 15.8 11.3 71 2.8 NW 6 9 3 5 1028.0 - -
23/07:30am 16.5 15.6 11.2 71 2.9 NW 7 9 4 5 1027.9 - -
23/07:20am 16.4 15.6 11.1 71 2.8 NW 6 9 3 5 1027.8 - -
23/07:10am 16.4 15.6 11.0 70 2.9 NW 6 7 3 4 1027.8 - -
23/07:00am 17.2 17.1 12.0 71 2.9 NW 4 6 2 3 1027.7 - -
23/06:50am 16.9 17.1 12.9 77 2.2 WNW 4 6 2 3 1027.7 - -
23/06:40am 16.2 16.8 13.0 81 1.8 NW 2 4 1 2 1027.6 - -
23/06:30am 14.8 15.4 11.9 83 1.6 WNW 0 0 0 0 1027.5 - -
23/06:20am 14.9 15.5 12.0 83 1.6 NE 0 0 0 0 1027.4 - -
23/06:10am 15.0 15.8 12.4 84 1.4 NW 0 2 0 1 1027.3 - -
23/06:00am 14.4 15.1 12.1 86 1.2 NW 0 2 0 1 1027.3 - -
23/05:50am 14.0 14.1 11.6 85 1.3 NW 2 4 1 2 1027.3 - -
23/05:30am 15.2 15.6 12.5 84 1.5 NW 2 6 1 3 1027.2 - -
23/05:20am 15.2 15.7 12.7 85 1.4 NW 2 4 1 2 1027.2 - -
23/05:10am 14.9 14.9 12.4 85 1.4 NW 4 6 2 3 1027.2 - -
23/05:00am 14.9 14.4 12.1 83 1.5 NW 6 7 3 4 1027.2 - -
23/04:50am 14.9 14.4 12.0 83 1.6 NW 6 6 3 3 1027.1 - -
23/04:40am 15.1 14.9 11.8 81 1.8 NNW 4 7 2 4 1027.1 - -
23/04:30am 15.8 15.7 12.1 78 2.0 NNW 4 7 2 4 1027.0 - -
23/04:20am 16.4 16.9 12.8 79 2.0 NW 2 2 1 1 1026.9 - -
23/04:10am 16.5 17.1 13.0 80 2.0 NW 2 4 1 2 1026.8 - -
23/04:00am 15.8 15.9 12.6 81 1.8 WNW 4 4 2 2 1026.8 - -
23/03:50am 14.8 14.8 11.3 79 1.9 W 2 2 1 1 1026.7 - -
23/03:40am 14.7 14.7 11.1 79 1.9 WSW 2 2 1 1 1026.6 - -
23/03:30am 14.8 14.8 11.2 79 1.9 WSW 2 2 1 1 1026.6 - -
23/03:20am 14.8 14.9 11.4 80 1.8 WSW 2 4 1 2 1026.6 - -
23/03:10am 14.9 15.1 11.7 81 1.7 WSW 2 2 1 1 1026.5 - -
23/03:00am 14.8 14.9 11.6 81 1.7 W 2 2 1 1 1026.5 - -
23/02:50am 14.6 14.7 11.6 82 1.6 WSW 2 2 1 1 1026.5 - -
23/02:40am 14.4 14.9 11.6 83 1.5 WSW 0 2 0 1 1026.5 - -
23/02:20am 14.0 14.1 11.4 84 1.4 WSW 2 2 1 1 1026.5 - -
23/02:10am 13.9 14.3 11.1 83 1.5 SW 0 2 0 1 1026.4 - -
23/02:00am 14.0 14.4 11.1 83 1.5 SW 0 2 0 1 1026.3 - -
23/01:50am 14.3 14.7 11.4 83 1.5 W 0 2 0 1 1026.3 - -
23/01:40am 14.2 14.3 11.5 84 1.4 WSW 2 4 1 2 1026.4 - -
23/01:30am 14.2 13.9 11.6 84 1.4 WSW 4 4 2 2 1026.5 - -
23/01:20am 14.5 14.7 11.7 83 1.5 WSW 2 4 1 2 1026.6 - -
23/01:10am 14.8 15.0 12.0 83 1.5 W 2 4 1 2 1026.7 - -
23/01:00am 15.1 15.4 12.3 83 1.5 W 2 2 1 1 1026.9 - -
23/12:50am 15.3 15.8 12.7 84 1.4 W 2 2 1 1 1027.0 - -
23/12:40am 15.5 16.5 13.3 87 1.2 WNW 0 2 0 1 1027.1 - -
23/12:30am 15.2 16.1 13.0 87 1.2 WNW 0 0 0 0 1027.2 - -
23/12:20am 15.0 15.9 13.0 88 1.1 NW 0 0 0 0 1027.2 - -
23/12:10am 14.6 15.4 12.6 88 1.1 NW 0 0 0 0 1027.3 - -
23/12:00am 14.5 15.2 12.3 87 1.2 NE 0 0 0 0 1027.3 - -
 
Date/Time
EST
Temp
°C
App
Temp
°C
Dew
Point
Rel
Hum
%
Delta-T
°C
Wind Press
QNH
hPa
Press
MSL
hPa
Rain
since 9 am
mm
Dir
 
Spd
km/h
Gust
km/h
Spd
kts
Gust
kts
22/11:50pm 15.0 15.8 12.6 85 1.3 NE 0 0 0 0 1027.4 - -
22/11:40pm 15.0 15.8 12.7 86 1.3 NE 0 0 0 0 1027.5 - -
22/11:30pm 14.9 15.7 12.7 87 1.2 NE 0 0 0 0 1027.5 - -
22/11:20pm 15.0 15.9 12.8 87 1.2 NE 0 0 0 0 1027.6 - -
22/11:10pm 15.0 15.8 12.7 86 1.3 NE 0 0 0 0 1027.5 - -
22/11:00pm 15.4 16.4 13.1 86 1.3 NE 0 0 0 0 1027.5 - -
22/10:50pm 15.6 16.7 13.4 87 1.2 NE 0 0 0 0 1027.5 - -
22/10:40pm 15.6 16.7 13.6 88 1.1 NW 0 0 0 0 1027.6 - -
22/10:30pm 14.7 15.6 12.8 88 1.0 NW 0 2 0 1 1027.6 - -
22/10:20pm 14.2 14.9 12.1 87 1.1 NNW 0 4 0 2 1027.7 - -
22/10:10pm 14.3 15.0 12.1 87 1.2 N 0 2 0 1 1027.7 - -
22/10:00pm 14.3 15.0 12.1 87 1.2 NNE 0 2 0 1 1027.7 - -
22/09:50pm 14.3 14.5 12.0 86 1.2 NNE 2 2 1 1 1027.8 - -
22/09:40pm 14.4 14.6 12.0 85 1.3 NNE 2 4 1 2 1027.8 - -
22/09:20pm 14.4 14.6 11.9 85 1.3 NNE 2 4 1 2 1027.8 - -
22/09:10pm 14.5 14.3 11.9 84 1.4 NNE 4 4 2 2 1027.9 - -
22/08:40pm 14.5 14.0 11.9 84 1.4 NE 6 6 3 3 1027.9 - -
22/08:30pm 14.4 13.9 11.9 85 1.3 NE 6 9 3 5 1027.9 - -
22/08:20pm 14.4 13.7 11.9 85 1.3 NE 7 9 4 5 1027.9 - -
22/08:10pm 14.3 13.5 11.8 85 1.3 NE 7 9 4 5 1027.9 - -
22/08:00pm 14.4 13.7 11.9 85 1.3 NE 7 9 4 5 1027.9 - -
22/07:50pm 14.4 13.3 11.9 85 1.3 NE 9 11 5 6 1027.9 - -
22/07:40pm 14.4 13.3 12.0 85 1.3 NE 9 11 5 6 1027.9 - -
22/07:30pm 14.4 12.9 12.0 85 1.3 NE 11 13 6 7 1027.9 - -
22/07:20pm 14.4 12.6 12.0 85 1.3 NE 13 15 7 8 1027.9 - -
22/07:10pm 14.4 12.5 11.9 85 1.3 NE 13 15 7 8 1027.9 - -
22/07:00pm 14.4 12.9 11.9 85 1.3 NE 11 15 6 8 1027.9 - -
22/06:40pm 14.3 13.2 11.8 85 1.3 NE 9 13 5 7 1027.9 - -
22/06:30pm 14.4 13.6 11.7 84 1.5 NE 7 13 4 7 1027.9 - -
22/06:20pm 14.3 13.1 11.6 84 1.4 NE 9 11 5 6 1027.9 - -
22/06:10pm 14.3 12.7 11.5 83 1.5 NE 11 15 6 8 1027.8 - -
22/06:00pm 14.3 12.6 11.3 82 1.6 NE 11 15 6 8 1027.7 - -
22/05:50pm 14.3 12.6 11.1 81 1.7 NE 11 13 6 7 1027.7 - -
22/05:40pm 14.3 13.0 11.1 81 1.7 NE 9 11 5 6 1027.7 - -
22/05:30pm 14.3 13.3 11.0 80 1.7 NE 7 11 4 6 1027.6 - -
22/05:20pm 14.3 13.3 11.0 80 1.7 NE 7 11 4 6 1027.5 - -
22/05:10pm 14.4 13.0 11.0 80 1.8 NE 9 11 5 6 1027.5 - -
22/05:00pm 14.4 13.0 11.0 80 1.8 NE 9 13 5 7 1027.4 - -
22/04:50pm 14.5 12.7 11.0 79 1.9 NE 11 13 6 7 1027.3 - -
22/04:30pm 14.5 12.3 10.8 78 2.0 NE 13 15 7 8 1027.2 - -
22/04:20pm 14.4 12.2 10.8 79 1.9 NE 13 17 7 9 1027.2 - -
22/04:10pm 14.5 12.7 10.7 78 2.0 NE 11 15 6 8 1027.3 - -
22/04:00pm 14.5 12.7 10.7 78 2.0 NE 11 15 6 8 1027.2 - -
22/03:50pm 14.5 12.7 10.7 78 2.0 NE 11 13 6 7 1027.3 - -
22/03:40pm 14.5 13.1 10.8 78 2.0 NE 9 13 5 7 1027.2 - -
22/03:30pm 14.5 12.7 10.8 78 2.0 NE 11 13 6 7 1027.2 - -
22/03:20pm 14.5 12.7 10.9 79 1.9 NE 11 13 6 7 1027.2 - -
22/03:10pm 14.6 12.8 11.0 79 1.9 NE 11 15 6 8 1027.3 - -
22/03:00pm 14.7 13.0 11.1 79 1.9 NE 11 13 6 7 1027.3 - -
22/02:50pm 14.7 13.0 11.1 79 1.9 NE 11 15 6 8 1027.3 - -
22/02:40pm 14.6 12.9 11.1 79 1.9 NE 11 15 6 8 1027.3 - -
22/02:30pm 14.5 12.7 11.0 79 1.9 NE 11 15 6 8 1027.3 - -
22/02:20pm 14.4 12.6 11.0 80 1.8 NE 11 15 6 8 1027.4 - -
22/02:10pm 14.1 11.9 10.7 80 1.8 NE 13 17 7 9 1027.3 - -
22/02:00pm 14.1 12.3 10.7 80 1.8 NE 11 15 6 8 1027.3 - -
22/01:50pm 14.1 12.6 10.6 79 1.8 NE 9 13 5 7 1027.3 - -
22/01:40pm 14.1 12.6 10.5 79 1.9 NE 9 13 5 7 1027.4 - -
22/01:30pm 14.1 12.6 10.5 79 1.9 NE 9 11 5 6 1027.5 - -
22/01:20pm 14.1 12.9 10.4 78 1.9 NE 7 11 4 6 1027.5 - -
22/01:10pm 14.1 12.9 10.3 78 2.0 NE 7 13 4 7 1027.7 - -
22/01:00pm 14.1 12.9 10.3 78 2.0 NE 7 11 4 6 1027.8 - -
22/12:50pm 14.2 13.2 10.2 77 2.1 NE 6 9 3 5 1027.9 - -
22/12:40pm 14.1 13.0 10.1 77 2.1 NE 6 7 3 4 1028.0 - -
22/12:30pm 14.2 13.1 10.0 76 2.2 NE 6 7 3 4 1028.0 - -
22/12:20pm 14.3 13.6 10.0 75 2.2 NE 4 7 2 4 1028.0 - -
22/12:10pm 14.4 13.7 10.1 75 2.2 NE 4 7 2 4 1028.1 - -
22/12:00pm 14.3 13.6 10.0 75 2.2 NE 4 6 2 3 1028.2 - -
22/11:50am 14.4 13.7 10.0 75 2.3 NE 4 7 2 4 1028.4 - -
22/11:40am 14.5 13.8 10.0 74 2.3 NE 4 6 2 3 1028.5 - -
22/11:30am 14.6 13.9 10.1 74 2.3 NE 4 6 2 3 1028.7 - -
22/11:20am 14.7 14.0 10.0 73 2.4 NE 4 7 2 4 1028.8 - -
22/11:00am 14.9 14.2 9.9 72 2.6 NNE 4 7 2 4 1028.9 - -
22/10:50am 14.9 13.8 9.8 71 2.6 NNE 6 7 3 4 1029.1 - -
22/10:40am 15.0 13.9 9.8 71 2.7 NNE 6 7 3 4 1029.2 - -
22/10:30am 14.8 13.6 9.7 71 2.6 NNE 6 7 3 4 1029.3 - -
22/10:20am 14.8 13.4 9.7 71 2.6 NNE 7 9 4 5 1029.4 - -
22/10:10am 14.9 13.8 9.8 71 2.6 NNE 6 9 3 5 1029.5 - -
22/10:00am 14.9 13.6 9.8 71 2.6 NNE 7 9 4 5 1029.6 - -
22/09:50am 15.1 13.8 9.8 70 2.8 N 7 9 4 5 1029.8 - -
22/09:40am 15.3 13.6 9.8 69 2.9 N 9 11 5 6 1029.9 - -
22/09:30am 15.8 14.5 10.0 68 3.0 NNE 7 11 4 6 1030.0 - -
22/09:20am 15.7 14.5 10.2 70 2.9 NNE 7 11 4 6 1030.0 - -
22/09:10am 15.5 14.2 10.0 70 2.9 N 7 13 4 7 1030.0 - -
22/09:00am 15.6 14.4 9.5 67 3.2 N 6 11 3 6 1030.1 - -
22/08:50am 15.8 14.6 9.4 65 3.3 NNE 6 7 3 4 1030.3 - -
22/08:40am 15.7 14.5 9.5 66 3.2 NNE 6 9 3 5 1030.3 - -
22/08:30am 15.7 14.5 9.5 66 3.2 NNE 6 7 3 4 1030.3 - -
22/08:20am 15.8 14.6 9.4 65 3.3 NNE 6 9 3 5 1030.3 - -
22/08:10am 15.9 14.7 9.5 66 3.3 NNE 6 9 3 5 1030.4 - -
22/08:00am 15.9 14.7 9.6 66 3.3 NNE 6 9 3 5 1030.4 - -
22/07:50am 15.9 15.1 9.6 66 3.3 NNE 4 7 2 4 1030.5 - -
22/07:40am 15.8 15.0 9.6 66 3.2 NNE 4 7 2 4 1030.6 - -
22/07:30am 15.9 15.1 9.6 66 3.3 NNE 4 7 2 4 1030.6 - -
22/07:20am 15.9 14.7 9.5 66 3.3 N 6 7 3 4 1030.6 - -
22/07:10am 15.9 14.7 9.5 66 3.3 NNE 6 11 3 6 1030.5 - -
22/07:00am 15.9 15.1 9.6 66 3.3 NNE 4 7 2 4 1030.5 - -
22/06:50am 15.9 15.1 9.6 66 3.3 NNE 4 11 2 6 1030.4 - -
22/06:40am 15.8 14.6 9.6 66 3.2 N 6 9 3 5 1030.3 - -
22/06:30am 15.8 15.0 9.6 66 3.2 N 4 9 2 5 1030.1 - -
22/06:20am 15.8 15.0 9.6 66 3.2 N 4 7 2 4 1030.1 - -
22/06:10am 15.8 15.0 9.7 67 3.2 NNW 4 7 2 4 1030.0 - -
22/06:00am 15.6 14.8 9.6 67 3.1 NNW 4 7 2 4 1030.0 - -
22/05:50am 15.7 15.3 9.7 67 3.1 N 2 7 1 4 1030.0 - -
22/05:40am 15.5 15.1 9.7 68 3.0 N 2 6 1 3 1029.8 - -
22/05:20am 15.4 15.5 10.3 71 2.7 NNW 0 6 0 3 1029.7 - -
22/05:10am 14.5 14.5 9.7 73 2.5 NW 0 2 0 1 1029.6 - -
22/05:00am 14.8 14.8 9.8 72 2.6 NW 0 2 0 1 1029.6 - -
22/04:50am 14.9 14.9 9.9 72 2.6 WNW 0 2 0 1 1029.5 - -
22/04:40am 14.8 14.5 10.1 73 2.5 WNW 2 4 1 2 1029.4 - -
22/04:30am 14.1 14.1 9.7 75 2.3 WNW 0 4 0 2 1029.4 - -
22/04:20am 14.2 14.1 9.6 74 2.4 W 0 2 0 1 1029.4 - -
22/04:10am 14.4 14.0 9.8 74 2.4 WNW 2 4 1 2 1029.3 - -
22/04:00am 14.2 13.4 9.8 75 2.3 WNW 4 9 2 5 1029.3 - -
22/03:50am 14.1 12.9 9.7 75 2.3 WNW 6 9 3 5 1029.2 - -
22/03:40am 14.1 12.7 9.7 75 2.3 WNW 7 9 4 5 1029.3 - -
22/03:30am 14.2 12.8 9.7 74 2.3 WNW 7 11 4 6 1029.3 - -
22/03:20am 14.2 12.5 9.9 75 2.2 WNW 9 11 5 6 1029.3 - -
22/03:10am 14.3 12.6 9.8 74 2.3 WNW 9 11 5 6 1029.3 - -
22/03:00am 14.4 12.7 9.8 74 2.4 WNW 9 13 5 7 1029.3 - -
22/02:50am 14.5 13.3 9.7 73 2.5 WNW 6 9 3 5 1029.3 - -
22/02:40am 14.0 12.7 9.3 73 2.4 W 6 9 3 5 1029.3 - -
22/02:30am 13.7 12.7 9.0 73 2.4 W 4 7 2 4 1029.3 - -
22/02:10am 14.2 13.0 9.6 74 2.4 W 6 9 3 5 1029.3 - -
22/02:00am 14.1 12.9 9.6 74 2.3 W 6 7 3 4 1029.4 - -
22/01:50am 14.0 12.8 9.7 75 2.2 W 6 7 3 4 1029.4 - -
22/01:40am 13.8 12.6 9.4 75 2.2 W 6 9 3 5 1029.4 - -
22/01:30am 14.1 12.7 9.7 75 2.3 W 7 11 4 6 1029.5 - -
22/01:20am 14.1 12.8 9.8 75 2.2 W 7 11 4 6 1029.5 - -
22/01:10am 14.0 12.7 9.9 76 2.1 W 7 11 4 6 1029.5 - -
22/01:00am 13.9 12.6 10.0 77 2.0 W 7 9 4 5 1029.5 - -
22/12:50am 13.6 12.3 10.1 79 1.8 W 7 9 4 5 1029.5 - -
22/12:40am 13.3 12.2 10.0 80 1.7 W 6 9 3 5 1029.5 - -
22/12:30am 13.1 12.0 9.9 81 1.6 W 6 7 3 4 1029.6 - -
22/12:20am 12.9 11.7 9.7 81 1.6 WSW 6 7 3 4 1029.6 - -
22/12:10am 12.9 11.7 9.7 81 1.6 WSW 6 9 3 5 1029.6 - -
22/12:00am 12.8 11.6 9.7 81 1.6 WSW 6 9 3 5 1029.6 - -
 
Date/Time
EST
Temp
°C
App
Temp
°C
Dew
Point
Rel
Hum
%
Delta-T
°C
Wind Press
QNH
hPa
Press
MSL
hPa
Rain
since 9 am
mm
Dir
 
Spd
km/h
Gust
km/h
Spd
kts
Gust
kts
21/11:50pm 12.8 11.6 9.6 81 1.6 WSW 6 9 3 5 1029.7 - -
21/11:40pm 12.8 11.4 9.6 81 1.6 SW 7 9 4 5 1029.6 - -
21/11:30pm 12.8 11.4 9.6 81 1.6 SW 7 11 4 6 1029.6 - -
21/11:20pm 12.8 11.4 9.6 81 1.6 SW 7 11 4 6 1029.5 - -
21/11:10pm 12.8 11.4 9.6 81 1.6 SW 7 11 4 6 1029.5 - -
21/11:00pm 12.8 11.4 9.5 80 1.7 SW 7 9 4 5 1029.5 - -
21/10:50pm 12.9 11.5 9.5 80 1.7 SW 7 11 4 6 1029.6 - -
21/10:40pm 12.9 11.1 9.5 80 1.7 SW 9 11 5 6 1029.6 - -
21/10:30pm 13.0 11.2 9.4 79 1.8 SW 9 13 5 7 1029.7 - -
21/10:20pm 13.1 11.3 9.4 78 1.9 SW 9 13 5 7 1029.8 - -
21/10:10pm 13.1 10.9 9.2 77 2.0 SW 11 13 6 7 1029.7 - -
21/10:00pm 13.4 11.1 9.1 75 2.2 SW 11 15 6 8 1029.8 - -
21/09:50pm 14.4 12.3 9.8 74 2.4 SW 11 17 6 9 1029.8 - -
21/09:40pm 13.4 11.3 9.7 78 1.9 SW 11 17 6 9 1029.7 - -
21/09:30pm 13.2 11.0 9.3 77 2.0 SW 11 15 6 8 1029.7 - -
21/09:20pm 13.5 11.3 9.5 77 2.0 SW 11 15 6 8 1029.8 - -
21/09:10pm 13.5 11.0 9.6 77 2.0 SW 13 15 7 8 1029.8 - -
21/09:00pm 13.3 10.7 9.5 78 1.9 SW 13 17 7 9 1029.9 - -
21/08:50pm 13.3 10.7 9.5 78 1.9 SW 13 17 7 9 1029.9 - -
21/08:40pm 13.3 10.3 9.4 77 2.0 SW 15 17 8 9 1030.0 - -
21/08:20pm 13.4 10.4 9.2 76 2.1 SW 15 19 8 10 1030.1 - -
21/08:10pm 13.4 10.4 9.1 75 2.2 SW 15 19 8 10 1030.0 - -
21/08:00pm 13.4 10.0 9.0 75 2.2 SSW 17 20 9 11 1030.0 - -
21/07:50pm 13.4 10.0 9.0 75 2.2 SW 17 20 9 11 1029.9 - -
21/07:40pm 13.4 10.0 9.0 75 2.2 SSW 17 20 9 11 1030.1 - -
21/07:30pm 13.3 9.4 8.8 74 2.3 SSW 19 22 10 12 1030.3 - -
21/07:20pm 13.3 9.2 8.8 74 2.3 SSW 20 22 11 12 1030.2 - -
21/07:10pm 13.2 9.3 8.7 74 2.3 SSW 19 22 10 12 1030.2 - -
21/07:00pm 13.4 9.5 8.6 73 2.4 SSW 19 20 10 11 1030.2 - -
21/06:50pm 13.4 9.3 8.7 73 2.4 SSW 20 24 11 13 1030.2 - -
21/06:40pm 13.2 9.1 8.5 73 2.3 SSW 20 24 11 13 1030.3 - -
21/06:30pm 13.3 9.1 8.4 72 2.4 SSW 20 24 11 13 1030.3 - -
21/06:20pm 13.3 8.3 8.2 71 2.5 SSW 24 28 13 15 1030.3 - -
21/06:10pm 13.5 8.1 8.2 70 2.6 SSW 26 28 14 15 1030.2 - -
21/06:00pm 13.6 8.7 8.3 70 2.6 SSW 24 28 13 15 1030.1 - -
21/05:50pm 13.6 9.0 8.3 70 2.6 SSW 22 26 12 14 1029.9 - -
21/05:40pm 13.5 9.3 8.2 70 2.6 SSW 20 26 11 14 1029.9 - -
21/05:30pm 13.5 8.8 7.9 69 2.8 SSW 22 26 12 14 1029.8 - -
21/05:20pm 13.7 9.4 7.9 68 2.9 SSW 20 24 11 13 1029.6 - -
21/05:10pm 13.7 9.4 7.7 67 3.0 SW 20 24 11 13 1029.3 - -
21/05:00pm 13.8 9.1 7.6 66 3.1 SW 22 24 12 13 1029.2 - -
21/04:50pm 13.8 9.1 7.7 66 3.0 SSW 22 26 12 14 1029.4 - -
21/04:40pm 13.7 8.7 7.9 68 2.9 SSW 24 28 13 15 1029.5 - -
21/04:30pm 14.0 9.4 8.2 68 2.9 SSW 22 26 12 14 1029.3 - -
21/04:20pm 14.2 9.5 7.8 65 3.2 SSW 22 26 12 14 1029.2 - -
21/04:10pm 14.2 9.8 7.5 64 3.3 SSW 20 24 11 13 1029.2 - -
21/04:00pm 14.3 9.6 7.6 64 3.3 SSW 22 24 12 13 1029.2 - -
21/03:50pm 14.3 9.6 7.6 64 3.3 SW 22 24 12 13 1029.1 - -
21/03:40pm 14.4 9.6 7.5 63 3.4 SW 22 26 12 14 1029.2 - -
21/03:30pm 14.4 9.3 7.5 63 3.4 SW 24 28 13 15 1029.2 - -
21/03:20pm 14.3 9.6 7.6 64 3.3 SW 22 28 12 15 1029.2 - -
21/03:10pm 14.3 9.6 7.7 64 3.3 SW 22 24 12 13 1029.1 - -
21/03:00pm 14.3 9.6 7.6 64 3.3 SW 22 28 12 15 1029.0 - -
21/02:50pm 14.3 9.6 7.9 65 3.2 SW 22 26 12 14 1028.9 - -
21/02:40pm 14.5 9.9 8.0 65 3.2 SW 22 28 12 15 1028.8 - -
21/02:20pm 14.4 9.7 7.7 64 3.3 SW 22 26 12 14 1028.7 - -
21/02:10pm 14.5 9.8 7.9 64 3.3 SW 22 26 12 14 1028.8 - -
21/02:00pm 14.6 9.9 7.8 63 3.4 SW 22 26 12 14 1028.8 - -
21/01:50pm 14.7 10.0 7.7 63 3.5 SW 22 28 12 15 1028.8 - -
21/01:40pm 14.7 10.0 7.6 62 3.5 SW 22 26 12 14 1028.8 - -
21/01:30pm 14.8 9.7 7.6 62 3.6 SW 24 28 13 15 1028.8 - -
21/01:20pm 14.7 9.2 7.5 62 3.6 SW 26 30 14 16 1028.9 - -
21/01:10pm 14.7 9.6 7.5 62 3.6 SW 24 30 13 16 1028.8 - -
21/01:00pm 14.7 9.5 7.2 61 3.7 WSW 24 30 13 16 1028.8 - -
21/12:50pm 14.7 9.5 7.4 61 3.6 WSW 24 32 13 17 1028.9 - -
21/12:40pm 14.7 9.1 7.3 61 3.6 WSW 26 30 14 16 1029.0 - -
21/12:30pm 14.7 9.2 7.6 62 3.5 WSW 26 32 14 17 1029.0 - -
21/12:20pm 14.7 9.6 7.6 62 3.5 WSW 24 30 13 16 1029.0 - -
21/12:10pm 14.8 9.7 7.6 62 3.6 WSW 24 28 13 15 1029.0 - -
21/12:00pm 14.8 9.7 7.6 62 3.6 WSW 24 28 13 15 1029.1 - -
21/11:50am 14.8 9.6 7.3 61 3.7 WSW 24 28 13 15 1029.2 - -
21/11:40am 15.0 9.8 7.2 59 3.8 WSW 24 30 13 16 1029.2 - -
21/11:30am 15.1 9.5 7.2 59 3.9 WSW 26 30 14 16 1029.3 - -
21/11:20am 15.2 9.3 7.5 60 3.8 WSW 28 32 15 17 1029.4 - -
21/11:10am 15.5 10.4 7.5 59 4.0 WSW 24 30 13 16 1029.6 - -
21/11:00am 15.6 9.9 6.8 56 4.3 WSW 26 32 14 17 1029.6 - -
21/10:50am 15.8 10.0 6.4 53 4.6 WSW 26 32 14 17 1029.7 - -
21/10:40am 15.8 10.1 6.5 54 4.5 WSW 26 30 14 16 1029.9 - -
21/10:30am 15.9 9.8 6.5 53 4.6 WSW 28 32 15 17 1029.9 - -
21/10:20am 15.6 9.5 6.6 55 4.4 SW 28 33 15 18 1029.9 - -
21/10:10am 15.7 10.0 6.6 54 4.4 SW 26 32 14 17 1029.9 - -
21/10:00am 15.7 10.0 6.6 54 4.4 SW 26 33 14 18 1029.9 - -
21/09:50am 15.7 9.9 6.4 54 4.5 SW 26 32 14 17 1029.9 - -
21/09:40am 15.8 10.1 6.5 54 4.5 SW 26 30 14 16 1029.9 - -
21/09:30am 15.7 9.8 5.9 52 4.7 SW 26 30 14 16 1029.9 - -
21/09:20am 15.4 9.5 6.0 53 4.5 SW 26 33 14 18 1029.9 - -
21/09:10am 15.3 9.1 6.3 55 4.4 SW 28 32 15 17 1029.9 - -
21/09:00am 15.3 9.4 6.0 54 4.5 SW 26 32 14 17 1030.0 - -
21/08:50am 15.5 9.3 6.0 53 4.6 SW 28 33 15 18 1030.0 - -
21/08:40am 15.5 9.3 6.3 54 4.5 SW 28 32 15 17 1030.0 - -
21/08:30am 15.2 9.5 6.7 57 4.1 SW 26 30 14 16 1030.1 - -
21/08:20am 14.9 8.8 6.4 57 4.1 SW 28 33 15 18 1030.0 - -
21/08:10am 15.0 8.9 6.4 56 4.2 SW 28 35 15 19 1029.9 - -
21/08:00am 14.9 8.8 6.4 57 4.1 SW 28 33 15 18 1029.9 - -
21/07:50am 14.7 9.0 6.8 59 3.9 SW 26 33 14 18 1029.9 - -
21/07:40am 14.5 8.4 6.4 58 3.9 SW 28 35 15 19 1029.7 - -
21/07:30am 14.3 8.2 6.7 60 3.7 SW 28 35 15 19 1029.8 - -
21/07:20am 14.2 7.7 6.5 60 3.7 SW 30 35 16 19 1029.7 - -
21/07:10am 14.2 7.6 6.2 58 3.8 SW 30 37 16 20 1029.5 - -
21/07:00am 14.4 7.9 6.3 58 3.9 SW 30 39 16 21 1029.4 - -
21/06:50am 14.5 7.6 6.6 59 3.8 SW 32 37 17 20 1029.5 - -
21/06:30am 13.6 6.6 6.1 60 3.6 SW 32 39 17 21 1029.2 - -
21/06:20am 13.5 6.5 6.0 60 3.6 SW 32 41 17 22 1029.2 - -
21/06:10am 13.4 6.2 6.1 61 3.5 SW 33 41 18 22 1029.2 - -
21/06:00am 13.3 6.2 6.4 63 3.3 SW 33 41 18 22 1028.9 - -
21/05:50am 13.2 6.0 6.1 62 3.4 SW 33 39 18 21 1028.9 - -
21/05:40am 13.4 6.5 6.3 62 3.4 SW 32 39 17 21 1028.6 - -
21/05:30am 13.2 6.1 6.3 63 3.3 SW 33 41 18 22 1028.5 - -
21/05:20am 13.1 6.2 6.6 64 3.1 SW 32 39 17 21 1028.5 - -
21/05:10am 12.9 6.7 6.1 63 3.2 SW 28 37 15 20 1028.2 - -
21/05:00am 12.9 6.3 5.9 62 3.3 SW 30 43 16 23 1028.1 - -
21/04:50am 12.9 5.9 6.0 63 3.3 SW 32 39 17 21 1028.1 - -
21/04:40am 13.2 6.7 6.5 64 3.2 SW 30 37 16 20 1028.2 - -
21/04:30am 13.1 6.5 6.1 62 3.3 SW 30 41 16 22 1028.3 - -
21/04:20am 12.9 6.0 6.4 64 3.1 SW 32 39 17 21 1028.0 - -
21/04:10am 13.1 6.1 5.9 61 3.4 SW 32 41 17 22 1027.9 - -
21/04:00am 13.3 5.7 6.0 61 3.5 SW 35 44 19 24 1028.1 - -
21/03:50am 13.2 6.0 5.9 61 3.5 SW 33 44 18 24 1028.1 - -
21/03:40am 13.2 5.3 6.1 62 3.4 SW 37 44 20 24 1028.0 - -
21/03:30am 13.2 6.4 6.7 64 3.1 SW 32 41 17 22 1027.8 - -
21/03:20am 13.1 6.3 6.7 65 3.1 SW 32 39 17 21 1027.8 - -
21/03:10am 13.1 6.2 6.6 64 3.1 SW 32 39 17 21 1027.6 - -
21/03:00am 13.0 5.9 6.3 64 3.2 SW 33 41 18 22 1027.5 - -
21/02:50am 13.1 5.6 6.5 64 3.2 SW 35 44 19 24 1027.6 - -
21/02:40am 13.1 6.0 6.6 64 3.1 SW 33 41 18 22 1027.5 - -
21/02:30am 13.1 6.1 6.8 65 3.0 SW 33 41 18 22 1027.7 - -
21/02:20am 13.0 6.1 6.3 64 3.2 SW 32 39 17 21 1027.2 - -
21/02:10am 13.1 6.2 6.3 63 3.2 SW 32 37 17 20 1027.4 - -
21/02:00am 13.1 6.6 6.5 64 3.2 SW 30 37 16 20 1027.3 - -
21/01:50am 13.1 6.6 6.4 64 3.2 SW 30 39 16 21 1027.2 - -
21/01:40am 13.2 6.3 6.4 63 3.3 SW 32 39 17 21 1027.4 - -
21/01:30am 13.1 6.0 6.5 64 3.2 SW 33 41 18 22 1027.1 - -
21/01:10am 13.1 6.1 6.2 63 3.3 SW 32 41 17 22 1027.4 - -
21/01:00am 13.2 6.3 6.4 63 3.3 SW 32 39 17 21 1027.5 - -
21/12:50am 13.3 6.4 6.6 64 3.2 SW 32 41 17 22 1027.4 - -
21/12:40am 13.3 6.3 6.8 64 3.1 SW 33 39 18 21 1027.4 - -
21/12:30am 13.2 6.7 6.5 64 3.2 SW 30 37 16 20 1027.4 - -
21/12:20am 13.2 6.4 6.8 65 3.1 SW 32 39 17 21 1027.5 - -
21/12:10am 13.2 6.4 7.0 66 3.0 SW 32 39 17 21 1027.6 - -

Other Formats:

Comma delimited format used in spreadsheet applications
http://www.bom.gov.au/fwo/IDV60801/IDV60801.55039.axf

JavaScript Object Notation format (JSON) in row-major order
http://www.bom.gov.au/fwo/IDV60801/IDV60801.55039.json